カーディフ の空港の天気 - METARとTAF

カーディフ空港 ( EGFF / CWL ) - イギリス カーディフ
飛行場実況気象(Metar)
観測時間01/16 19:20 GMT (01/16 19:20 UTC)
風向・風速北西 5m/s
視程10km以上
天気現象
全天の4割程度の雲 雲底高度 1100m
気温5℃
湿度87%
気圧1033hPa
METAREGFF 161920Z AUTO 32009KT 9999 SCT036 05/03 Q1033
過去の天気等 Google飛行場航空写真 Wunderground天気予報

過去48時間のMETAR

飛行場予報(TAF)
発表時間: 1/16 17:02 GMT (1/16 17:02 UTC)
予報対象時間: 16日18時 GMT ~ 17日18時 GMT
風向・風速西 3m/s
視程10km以上
全天の4割程度の雲 雲底高度 1220m
16日18時 GMT ~ 16日20時 GMT に 確率 30% で一時的に
天気現象弱い雨
全天の8割程度の雲 雲底高度 580m
16日22時 GMT から 確率 30% で
視程7000m
17日16時 GMT ~ 17日18時 GMT に徐々に
視程8000m
TAF EGFF 161702Z 1618/1718 28006KT 9999 SCT040
PROB30 TEMPO 1618/1620 -RA BKN019
PROB30 1622/1710 7000
BECMG 1716/1718 8000